createdAt,value
2019-04-10T00:01:44.645Z,88.20
2019-04-10T00:04:13.246Z,86.60
2019-04-10T00:06:41.709Z,88.63
2019-04-10T00:09:10.598Z,83.10
2019-04-10T00:11:39.188Z,90.67
2019-04-10T00:14:08.234Z,83.87
2019-04-10T00:16:36.820Z,84.30
2019-04-10T00:19:05.240Z,84.93
2019-04-10T00:21:33.660Z,88.17
2019-04-10T00:24:02.156Z,80.07
2019-04-10T00:26:30.584Z,84.37
2019-04-10T00:29:00.138Z,84.67
2019-04-10T00:31:29.757Z,84.37
2019-04-10T00:33:58.969Z,85.93
2019-04-10T00:36:27.610Z,83.13
2019-04-10T00:38:56.027Z,79.33
2019-04-10T00:41:24.453Z,82.57
2019-04-10T00:43:52.880Z,81.70
2019-04-10T00:46:22.136Z,83.50
2019-04-10T00:48:50.589Z,79.87
2019-04-10T00:51:19.318Z,85.17
2019-04-10T00:53:47.837Z,80.70
2019-04-10T00:56:16.570Z,82.63
2019-04-10T00:58:45.769Z,81.77
2019-04-10T01:01:14.372Z,78.37
2019-04-10T01:03:43.024Z,80.87
2019-04-10T01:06:13.668Z,78.47
2019-04-10T01:08:42.764Z,94.27
2019-04-10T01:11:11.428Z,85.10
2019-04-10T01:13:39.853Z,82.30
2019-04-10T01:16:09.217Z,86.07
2019-04-10T01:18:37.797Z,75.63
2019-04-10T01:21:06.268Z,83.70
2019-04-10T01:23:35.118Z,80.00
2019-04-10T01:26:03.765Z,82.87
2019-04-10T01:28:33.143Z,79.53
2019-04-10T01:31:02.503Z,77.10
2019-04-10T01:33:31.117Z,79.57
2019-04-10T01:35:59.542Z,81.07
2019-04-10T01:38:28.022Z,76.43
2019-04-10T01:40:56.455Z,81.20
2019-04-10T01:43:24.881Z,83.50
2019-04-10T01:45:53.674Z,78.83
2019-04-10T01:48:22.149Z,74.73
2019-04-10T01:50:52.868Z,82.03
2019-04-10T01:53:21.749Z,82.50
2019-04-10T01:55:51.321Z,78.70
2019-04-10T01:58:21.474Z,76.70
2019-04-10T02:01:01.825Z,85.30
2019-04-10T02:03:30.475Z,83.00
2019-04-10T02:05:58.904Z,82.83
2019-04-10T02:08:27.338Z,79.50
2019-04-10T02:10:56.545Z,83.13
2019-04-10T02:13:25.475Z,83.33
2019-04-10T02:15:54.470Z,80.50
2019-04-10T02:18:23.480Z,82.93
2019-04-10T02:20:52.037Z,77.57
2019-04-10T02:23:20.717Z,81.53
2019-04-10T02:25:49.362Z,80.97
2019-04-10T02:28:18.611Z,75.33
2019-04-10T02:30:47.893Z,82.07
2019-04-10T02:33:17.882Z,81.77
2019-04-10T02:35:47.674Z,83.50
2019-04-10T02:38:30.938Z,77.30
2019-04-10T02:40:47.516Z,82.37
2019-04-10T02:43:16.297Z,79.80
2019-04-10T02:45:44.947Z,79.30
2019-04-10T02:48:14.898Z,77.87
2019-04-10T02:50:44.783Z,78.13
2019-04-10T02:53:15.143Z,78.13
2019-04-10T02:55:43.650Z,78.13
2019-04-10T02:58:12.171Z,78.57
2019-04-10T03:00:42.148Z,79.43
2019-04-10T03:03:12.022Z,75.93
2019-04-10T03:05:40.778Z,78.70
2019-04-10T03:08:11.013Z,77.43
2019-04-10T03:10:47.496Z,81.97
2019-04-10T03:13:11.472Z,81.20
2019-04-10T03:15:40.931Z,79.67
2019-04-10T03:18:09.487Z,79.03
2019-04-10T03:20:38.488Z,79.20
2019-04-10T03:23:07.329Z,79.17
2019-04-10T03:25:35.787Z,75.57
2019-04-10T03:28:05.080Z,77.50
2019-04-10T03:30:35.865Z,75.00
2019-04-10T03:33:10.821Z,78.97
2019-04-10T03:35:43.306Z,75.67
2019-04-10T03:38:11.981Z,76.10
2019-04-10T03:40:41.509Z,78.00
2019-04-10T03:43:10.210Z,77.13
2019-04-10T03:45:38.931Z,77.37
2019-04-10T03:48:08.440Z,75.73
2019-04-10T03:50:37.010Z,78.73
2019-04-10T03:53:05.570Z,76.03
2019-04-10T03:55:34.871Z,73.87
2019-04-10T03:58:03.415Z,76.60
2019-04-10T04:00:31.883Z,76.13
2019-04-10T04:03:00.321Z,76.90
2019-04-10T04:05:28.900Z,76.90
2019-04-10T04:07:57.391Z,76.00
2019-04-10T04:10:26.750Z,73.30
2019-04-10T04:12:55.275Z,75.57
2019-04-10T04:15:24.017Z,76.50
2019-04-10T04:17:52.695Z,81.30
2019-04-10T04:20:21.203Z,75.03
2019-04-10T04:22:49.652Z,71.80
2019-04-10T04:25:18.093Z,78.27
2019-04-10T04:27:46.508Z,73.23
2019-04-10T04:30:15.043Z,72.67
2019-04-10T04:32:44.096Z,76.67
2019-04-10T04:35:13.216Z,76.03
2019-04-10T04:37:42.238Z,73.93
2019-04-10T04:40:11.139Z,69.87
2019-04-10T04:42:40.650Z,72.43
2019-04-10T04:45:09.339Z,72.47
2019-04-10T04:47:37.755Z,73.80
2019-04-10T04:50:06.302Z,73.60
2019-04-10T04:52:34.975Z,69.83
2019-04-10T04:55:05.967Z,70.43
2019-04-10T04:57:36.503Z,70.27
2019-04-10T05:00:06.279Z,72.83
2019-04-10T05:02:35.625Z,76.67
2019-04-10T05:05:05.163Z,72.63
2019-04-10T05:07:33.595Z,71.20
2019-04-10T05:10:02.792Z,66.87
2019-04-10T05:12:31.822Z,68.40
2019-04-10T05:15:00.427Z,73.07
2019-04-10T05:17:28.867Z,70.30
2019-04-10T05:19:57.263Z,69.03
2019-04-10T05:22:26.462Z,67.00
2019-04-10T05:24:54.889Z,70.90
2019-04-10T05:27:23.315Z,70.53
2019-04-10T05:29:51.705Z,75.67
2019-04-10T05:32:21.324Z,71.10
2019-04-10T05:34:50.409Z,69.13
2019-04-10T05:37:19.184Z,67.47
2019-04-10T05:39:50.890Z,69.67
2019-04-10T05:42:17.797Z,68.23
2019-04-10T05:44:46.546Z,65.27
2019-04-10T05:47:14.983Z,64.77
2019-04-10T05:49:43.387Z,64.87
2019-04-10T05:52:12.659Z,63.17
2019-04-10T05:54:41.656Z,64.80
2019-04-10T05:57:10.376Z,59.70
2019-04-10T05:59:38.941Z,60.47
2019-04-10T06:02:10.161Z,63.40
2019-04-10T06:04:38.591Z,61.27
2019-04-10T06:07:07.004Z,62.80
2019-04-10T06:09:36.517Z,60.70
2019-04-10T06:12:05.770Z,60.60
2019-04-10T06:14:35.283Z,59.50
2019-04-10T06:17:04.252Z,58.20
2019-04-10T06:19:32.915Z,58.60
2019-04-10T06:22:01.332Z,53.37
2019-04-10T06:24:30.039Z,55.13
2019-04-10T06:26:59.606Z,52.57
2019-04-10T06:29:28.805Z,53.43
2019-04-10T06:31:57.416Z,54.47
2019-04-10T06:34:26.042Z,51.23
2019-04-10T06:36:54.502Z,50.73
2019-04-10T06:39:22.954Z,53.13
2019-04-10T06:41:51.335Z,50.90
2019-04-10T06:44:19.755Z,52.30
2019-04-10T06:46:48.608Z,49.63
2019-04-10T06:49:17.180Z,49.70
2019-04-10T06:51:45.583Z,48.90
2019-04-10T06:54:16.466Z,49.03
2019-04-10T06:56:45.404Z,48.70
2019-04-10T06:59:16.183Z,48.13
2019-04-10T07:01:51.183Z,49.60
2019-04-10T07:04:15.500Z,50.47
2019-04-10T07:06:57.319Z,46.93
2019-04-10T07:09:18.203Z,45.40
2019-04-10T07:11:47.910Z,46.33
2019-04-10T07:14:18.126Z,43.77
2019-04-10T07:16:46.873Z,46.00
2019-04-10T07:19:15.735Z,42.10
2019-04-10T07:21:44.267Z,43.57
2019-04-10T07:24:15.027Z,43.13
2019-04-10T07:26:45.945Z,39.17
2019-04-10T07:29:16.412Z,39.27
2019-04-10T07:31:43.276Z,40.50
2019-04-10T07:34:11.680Z,39.90
2019-04-10T07:36:42.104Z,38.70
2019-04-10T07:39:10.259Z,39.60
2019-04-10T07:41:39.640Z,37.43
2019-04-10T07:44:08.162Z,37.17
2019-04-10T07:46:36.604Z,40.63
2019-04-10T07:49:05.008Z,39.67
2019-04-10T07:51:34.073Z,38.10
2019-04-10T07:54:02.525Z,37.80
2019-04-10T07:56:31.167Z,38.20
2019-04-10T07:59:00.575Z,40.90
2019-04-10T08:01:29.204Z,38.53
2019-04-10T08:03:57.765Z,38.47
2019-04-10T08:06:26.181Z,36.40
2019-04-10T08:08:55.505Z,36.50
2019-04-10T08:11:24.051Z,37.27
2019-04-10T08:13:53.266Z,38.63
2019-04-10T08:16:23.213Z,37.57
2019-04-10T08:18:52.129Z,36.03
2019-04-10T08:21:21.771Z,36.13
2019-04-10T08:23:51.425Z,34.77
2019-04-10T08:26:21.284Z,35.23
2019-04-10T08:28:49.895Z,35.33
2019-04-10T08:31:19.031Z,35.20
2019-04-10T08:33:47.599Z,35.57
2019-04-10T08:36:16.137Z,38.40
2019-04-10T08:38:44.608Z,35.33
2019-04-10T08:41:13.019Z,37.40
2019-04-10T08:43:41.721Z,34.53
2019-04-10T08:46:10.864Z,35.97
2019-04-10T08:48:39.486Z,33.03
2019-04-10T08:51:08.683Z,35.83
2019-04-10T08:53:38.192Z,36.33
2019-04-10T08:56:06.723Z,36.03
2019-04-10T08:58:35.146Z,37.57
2019-04-10T09:01:05.011Z,33.47
2019-04-10T09:03:33.521Z,32.90
2019-04-10T09:06:02.884Z,36.67
2019-04-10T09:08:31.459Z,34.27
2019-04-10T09:11:00.870Z,34.37
2019-04-10T09:13:30.573Z,32.57
2019-04-10T09:16:00.337Z,34.23
2019-04-10T09:18:29.520Z,34.10
2019-04-10T09:20:59.303Z,32.40
2019-04-10T09:23:38.748Z,35.50
2019-04-10T09:25:58.070Z,31.50
2019-04-10T09:28:26.575Z,33.90
2019-04-10T09:30:55.352Z,34.17
2019-04-10T09:33:27.548Z,33.57
2019-04-10T09:35:55.101Z,35.47
2019-04-10T09:38:23.705Z,33.00
2019-04-10T09:40:53.225Z,33.13
2019-04-10T09:43:21.799Z,34.53
2019-04-10T09:45:51.513Z,33.37
2019-04-10T09:48:20.056Z,33.43
2019-04-10T09:50:48.452Z,32.97
2019-04-10T09:53:17.110Z,35.33
2019-04-10T09:55:46.830Z,33.60
2019-04-10T09:58:15.362Z,32.43
2019-04-10T10:00:43.841Z,31.90
2019-04-10T10:03:12.319Z,32.63
2019-04-10T10:05:40.719Z,31.97
2019-04-10T10:08:09.193Z,31.23
2019-04-10T10:10:38.394Z,30.70
2019-04-10T10:13:09.505Z,30.63
2019-04-10T10:15:38.090Z,32.03
2019-04-10T10:18:06.520Z,31.07
2019-04-10T10:20:37.610Z,30.30
2019-04-10T10:23:05.408Z,31.63
2019-04-10T10:25:34.043Z,30.77
2019-04-10T10:28:02.839Z,32.53
2019-04-10T10:30:31.532Z,32.10
2019-04-10T10:33:00.077Z,32.40
2019-04-10T10:35:29.329Z,30.20
2019-04-10T10:37:58.844Z,31.30
2019-04-10T10:40:27.740Z,29.63
2019-04-10T10:42:56.246Z,31.33
2019-04-10T10:45:24.993Z,31.67
2019-04-10T10:47:54.651Z,32.03
2019-04-10T10:50:23.640Z,30.77
2019-04-10T10:52:52.215Z,30.57
2019-04-10T10:55:21.287Z,31.70
2019-04-10T10:57:51.115Z,31.53
2019-04-10T11:00:21.410Z,30.47
2019-04-10T11:02:49.940Z,30.07
2019-04-10T11:05:19.065Z,29.47
2019-04-10T11:07:48.882Z,29.73
2019-04-10T11:10:22.869Z,29.07
2019-04-10T11:12:48.432Z,28.90
2019-04-10T11:15:18.535Z,28.07
2019-04-10T11:17:47.196Z,28.47
2019-04-10T11:20:17.639Z,29.93
2019-04-10T11:22:47.398Z,29.00
2019-04-10T11:25:16.023Z,27.97
2019-04-10T11:27:44.432Z,27.97
2019-04-10T11:30:13.566Z,27.03
2019-04-10T11:32:42.368Z,25.07
2019-04-10T11:35:12.958Z,26.90
2019-04-10T11:37:44.903Z,26.87
2019-04-10T11:40:14.668Z,26.27
2019-04-10T11:42:42.910Z,26.33
2019-04-10T11:45:16.190Z,25.67
2019-04-10T11:47:44.839Z,25.17
2019-04-10T11:50:17.869Z,24.30
2019-04-10T11:52:51.905Z,25.63
2019-04-10T11:55:19.964Z,26.47
2019-04-10T11:57:48.957Z,26.07
2019-04-10T12:00:20.370Z,24.43
2019-04-10T12:02:52.406Z,24.00
2019-04-10T12:05:20.129Z,24.30
2019-04-10T12:08:07.789Z,26.43
2019-04-10T12:12:49.930Z,24.23
2019-04-10T12:15:19.147Z,24.03
2019-04-10T12:17:47.556Z,24.00
2019-04-10T12:20:16.735Z,22.60
2019-04-10T12:22:46.172Z,23.27
2019-04-10T12:25:16.628Z,23.97
2019-04-10T12:27:45.360Z,22.37
2019-04-10T12:30:15.176Z,22.23
2019-04-10T12:32:43.835Z,22.13
2019-04-10T12:35:13.828Z,23.50
2019-04-10T12:37:43.348Z,24.13
2019-04-10T12:40:12.266Z,26.13
2019-04-10T12:42:40.719Z,24.20
2019-04-10T12:45:09.700Z,27.80
2019-04-10T12:47:38.115Z,26.07
2019-04-10T12:50:08.099Z,26.30
2019-04-10T12:52:36.691Z,28.90
2019-04-10T12:55:08.027Z,28.40
2019-04-10T12:57:37.087Z,26.10
2019-04-10T13:00:09.707Z,26.77
2019-04-10T13:02:38.648Z,26.10
2019-04-10T13:05:07.416Z,27.27
2019-04-10T13:07:35.996Z,25.57
2019-04-10T13:10:06.593Z,26.13
2019-04-10T13:12:35.466Z,25.27
2019-04-10T13:15:09.475Z,24.83
2019-04-10T13:17:38.606Z,24.50
2019-04-10T13:20:10.376Z,25.03
2019-04-10T13:22:38.776Z,25.00
2019-04-10T13:25:08.257Z,25.07
2019-04-10T13:27:36.903Z,24.77
2019-04-10T13:30:10.299Z,25.70
2019-04-10T13:32:38.124Z,25.33
2019-04-10T13:35:08.117Z,24.93
2019-04-10T13:37:37.819Z,27.20
2019-04-10T13:40:07.650Z,25.10
2019-04-10T13:42:37.135Z,24.80
2019-04-10T13:45:07.925Z,26.40
2019-04-10T13:47:36.602Z,25.90
2019-04-10T13:50:10.352Z,25.40
2019-04-10T13:52:40.607Z,25.80
2019-04-10T13:55:10.332Z,24.77
2019-04-10T13:57:39.969Z,25.47
2019-04-10T14:00:20.049Z,25.70
2019-04-10T14:02:48.464Z,25.17
2019-04-10T14:05:17.905Z,23.30
2019-04-10T14:07:46.458Z,25.13
2019-04-10T14:10:16.171Z,24.70
2019-04-10T14:12:44.640Z,28.33
2019-04-10T14:15:14.019Z,25.33
2019-04-10T14:17:42.500Z,27.13
2019-04-10T14:20:13.091Z,25.07
2019-04-10T14:22:44.072Z,25.90
2019-04-10T14:25:14.195Z,24.37
2019-04-10T14:27:42.672Z,23.83
2019-04-10T14:30:13.275Z,25.43
2019-04-10T14:32:41.935Z,26.60
2019-04-10T14:35:11.426Z,23.70
2019-04-10T14:37:41.214Z,23.77
2019-04-10T14:40:11.686Z,23.63
2019-04-10T14:42:40.366Z,24.80
2019-04-10T14:45:09.139Z,23.07
2019-04-10T14:47:37.723Z,24.17
2019-04-10T14:50:07.546Z,24.53
2019-04-10T14:52:37.155Z,23.53
2019-04-10T14:55:06.212Z,22.50
2019-04-10T14:57:34.951Z,22.87
2019-04-10T15:00:10.684Z,22.73
2019-04-10T15:02:39.780Z,22.37
2019-04-10T15:05:09.974Z,22.10
2019-04-10T15:07:39.431Z,24.20
2019-04-10T15:10:08.997Z,22.80
2019-04-10T15:12:37.454Z,21.30
2019-04-10T15:15:06.419Z,25.40
2019-04-10T15:17:35.033Z,26.07
2019-04-10T15:20:04.917Z,25.47
2019-04-10T15:22:33.834Z,24.13
2019-04-10T15:25:02.483Z,21.67
2019-04-10T15:27:31.005Z,21.13
2019-04-10T15:29:59.424Z,22.77
2019-04-10T15:32:27.839Z,23.90
2019-04-10T15:34:56.275Z,22.80
2019-04-10T15:37:24.926Z,24.13
2019-04-10T15:39:53.967Z,24.27
2019-04-10T15:42:22.520Z,24.20
2019-04-10T15:44:50.984Z,23.53
2019-04-10T15:47:22.562Z,23.80
2019-04-10T15:49:49.573Z,23.87
2019-04-10T15:52:18.025Z,23.63
2019-04-10T15:54:46.465Z,24.97
2019-04-10T15:57:14.871Z,26.27
2019-04-10T15:59:44.158Z,25.00
2019-04-10T16:02:13.255Z,50.23
2019-04-10T16:04:42.329Z,35.57
2019-04-10T16:07:11.918Z,24.53
2019-04-10T16:09:49.158Z,28.70
2019-04-10T16:12:18.609Z,24.83
2019-04-10T16:14:47.229Z,24.87
2019-04-10T16:17:34.844Z,23.90
2019-04-10T16:20:15.524Z,25.27
2019-04-10T16:22:46.703Z,22.90
2019-04-10T16:25:19.986Z,24.00
2019-04-10T16:27:48.495Z,26.77
2019-04-10T16:30:18.645Z,23.57
2019-04-10T16:32:47.045Z,23.20
2019-04-10T16:35:15.747Z,23.27
2019-04-10T16:37:44.279Z,24.03
2019-04-10T16:40:13.239Z,25.60
2019-04-10T16:42:41.878Z,23.70
2019-04-10T16:45:11.138Z,26.67
2019-04-10T16:47:39.557Z,26.10
2019-04-10T16:50:09.218Z,23.50
2019-04-10T16:52:38.893Z,25.07
2019-04-10T16:55:08.378Z,28.80
2019-04-10T16:57:36.855Z,33.30
2019-04-10T17:00:06.970Z,30.80
2019-04-10T17:02:36.042Z,40.40
2019-04-10T17:05:08.093Z,28.60
2019-04-10T17:07:36.744Z,25.93
2019-04-10T17:10:14.050Z,26.07
2019-04-10T17:12:38.467Z,25.40
2019-04-10T17:15:08.407Z,26.40
2019-04-10T17:17:36.864Z,27.73
2019-04-10T17:20:09.570Z,26.87
2019-04-10T17:22:43.735Z,26.67
2019-04-10T17:25:09.407Z,25.37
2019-04-10T17:27:38.068Z,26.83
2019-04-10T17:30:09.447Z,27.43
2019-04-10T17:32:38.518Z,27.67
2019-04-10T17:35:09.547Z,26.20
2019-04-10T17:37:40.231Z,27.23
2019-04-10T17:40:26.356Z,44.83
2019-04-10T17:42:44.193Z,33.87
2019-04-10T17:45:14.199Z,26.83
2019-04-10T17:47:42.947Z,25.20
2019-04-10T17:50:14.157Z,26.00
2019-04-10T17:52:43.264Z,48.30
2019-04-10T17:55:11.815Z,52.53
2019-04-10T17:57:44.600Z,27.90
2019-04-10T18:00:25.432Z,25.77
2019-04-10T18:02:54.987Z,22.13
2019-04-10T18:05:23.623Z,31.73
2019-04-10T18:07:52.407Z,23.00
2019-04-10T18:10:20.899Z,29.60
2019-04-10T18:12:49.404Z,22.03
2019-04-10T18:15:17.835Z,21.13
2019-04-10T18:17:47.159Z,23.10
2019-04-10T18:20:15.808Z,22.33
2019-04-10T18:22:44.921Z,20.63
2019-04-10T18:25:13.868Z,20.83
2019-04-10T18:27:42.858Z,21.03
2019-04-10T18:30:12.093Z,20.37
2019-04-10T18:32:40.511Z,17.97
2019-04-10T18:35:09.011Z,79.13
2019-04-10T18:37:37.420Z,23.43
2019-04-10T18:40:07.457Z,55.93
2019-04-10T18:42:37.345Z,22.23
2019-04-10T18:45:07.504Z,16.20
2019-04-10T18:47:38.083Z,16.97
2019-04-10T18:50:07.909Z,15.20
2019-04-10T18:52:37.343Z,17.83
2019-04-10T18:55:06.491Z,17.23
2019-04-10T18:57:35.731Z,17.03
2019-04-10T19:00:10.125Z,16.07
2019-04-10T19:02:57.169Z,16.03
2019-04-10T19:05:30.340Z,22.03
2019-04-10T19:07:58.793Z,16.57
2019-04-10T19:10:28.582Z,16.70
2019-04-10T19:12:57.320Z,15.83
2019-04-10T19:15:25.737Z,15.60
2019-04-10T19:17:55.180Z,15.57
2019-04-10T19:20:24.877Z,15.10
2019-04-10T19:22:53.432Z,15.03
2019-04-10T19:25:22.733Z,16.47
2019-04-10T19:27:51.261Z,14.43
2019-04-10T19:30:27.101Z,15.03
2019-04-10T19:32:55.513Z,16.17
2019-04-10T19:35:23.928Z,15.17
2019-04-10T19:37:52.934Z,17.43
2019-04-10T19:40:21.540Z,15.10
2019-04-10T19:42:49.940Z,20.27
2019-04-10T19:45:19.446Z,14.63
2019-04-10T19:47:48.148Z,14.97
2019-04-10T19:50:17.321Z,18.77
2019-04-10T19:52:46.746Z,15.10
2019-04-10T19:55:15.591Z,15.97
2019-04-10T19:57:44.115Z,19.67
2019-04-10T20:00:14.483Z,16.73
2019-04-10T20:02:43.591Z,14.90
2019-04-10T20:05:12.877Z,16.07
2019-04-10T20:07:41.404Z,15.37
2019-04-10T20:10:10.896Z,15.43
2019-04-10T20:12:40.356Z,14.73
2019-04-10T20:15:10.034Z,23.33
2019-04-10T20:17:38.550Z,15.43
2019-04-10T20:20:07.499Z,14.10
2019-04-10T20:22:36.894Z,15.10
2019-04-10T20:25:06.130Z,15.60
2019-04-10T20:27:34.705Z,14.07
2019-04-10T20:30:03.960Z,16.70
2019-04-10T20:32:32.374Z,15.87
2019-04-10T20:35:00.756Z,16.63
2019-04-10T20:37:29.214Z,15.27
2019-04-10T20:39:58.075Z,14.87
2019-04-10T20:42:26.684Z,15.57
2019-04-10T20:44:55.176Z,14.77
2019-04-10T20:47:24.601Z,14.37
2019-04-10T20:49:53.355Z,15.13
2019-04-10T20:52:22.112Z,17.10
2019-04-10T20:54:50.674Z,15.10
2019-04-10T20:57:19.424Z,15.20
2019-04-10T20:59:48.899Z,14.40
2019-04-10T21:02:18.071Z,14.73
2019-04-10T21:04:54.573Z,14.87
2019-04-10T21:07:16.905Z,14.33
2019-04-10T21:09:45.373Z,16.20
2019-04-10T21:12:17.606Z,14.30
2019-04-10T21:14:44.001Z,14.27
2019-04-10T21:17:12.488Z,14.27
2019-04-10T21:19:43.187Z,14.17
2019-04-10T21:22:11.734Z,14.07
2019-04-10T21:24:41.042Z,14.53
2019-04-10T21:27:09.804Z,13.63
2019-04-10T21:29:48.851Z,15.47
2019-04-10T21:32:24.644Z,13.87
2019-04-10T21:34:53.528Z,15.10
2019-04-10T21:37:22.214Z,14.27
2019-04-10T21:39:52.186Z,14.73
2019-04-10T21:42:23.622Z,15.43
2019-04-10T21:44:51.309Z,12.83
2019-04-10T21:47:19.840Z,13.10
2019-04-10T21:49:48.463Z,13.37
2019-04-10T21:52:17.043Z,13.93
2019-04-10T21:54:51.134Z,13.87
2019-04-10T21:57:16.056Z,12.77
2019-04-10T21:59:45.502Z,13.20
2019-04-10T22:02:15.334Z,12.77
2019-04-10T22:04:44.155Z,15.37
2019-04-10T22:07:16.775Z,14.10
2019-04-10T22:09:55.454Z,12.13
2019-04-10T22:12:31.247Z,13.20
2019-04-10T22:14:54.644Z,13.47
2019-04-10T22:17:23.125Z,12.37
2019-04-10T22:19:52.751Z,12.83
2019-04-10T22:22:22.257Z,13.33
2019-04-10T22:24:50.925Z,12.87
2019-04-10T22:27:19.330Z,12.77
2019-04-10T22:29:47.910Z,13.33
2019-04-10T22:32:16.495Z,15.87
2019-04-10T22:34:44.939Z,13.67
2019-04-10T22:37:15.500Z,14.07
2019-04-10T22:39:43.759Z,11.80
2019-04-10T22:42:13.003Z,12.07
2019-04-10T22:44:45.204Z,13.40
2019-04-10T22:47:11.586Z,13.17
2019-04-10T22:49:39.994Z,13.73
2019-04-10T22:52:08.905Z,12.30
2019-04-10T22:54:37.350Z,13.27
2019-04-10T22:57:06.916Z,13.33
2019-04-10T22:59:35.531Z,12.40
2019-04-10T23:02:09.602Z,13.13
2019-04-10T23:04:34.916Z,13.67
2019-04-10T23:07:03.955Z,13.07
2019-04-10T23:09:32.636Z,11.70
2019-04-10T23:12:02.235Z,12.13
2019-04-10T23:14:31.189Z,13.53
2019-04-10T23:17:00.186Z,14.70
2019-04-10T23:19:29.936Z,12.60
2019-04-10T23:21:58.563Z,15.27
2019-04-10T23:24:27.734Z,12.37
2019-04-10T23:26:57.487Z,12.43
2019-04-10T23:29:26.321Z,14.60
2019-04-10T23:31:54.889Z,11.30
2019-04-10T23:34:23.314Z,12.67
2019-04-10T23:36:51.796Z,11.33
2019-04-10T23:39:20.206Z,12.47
2019-04-10T23:41:50.974Z,13.13
2019-04-10T23:44:18.778Z,15.00
2019-04-10T23:46:47.437Z,12.47
2019-04-10T23:49:16.034Z,13.20
2019-04-10T23:51:45.394Z,14.20
2019-04-10T23:54:15.154Z,13.03
2019-04-10T23:56:45.066Z,13.47
2019-04-10T23:59:14.852Z,12.70
